sensor_id;sensor_type;location;lat;lon;timestamp;temperature;humidity
3564;DHT22;1796;52.388;13.096;2022-10-04T00:02:23;12.90;99.90
3564;DHT22;1796;52.388;13.096;2022-10-04T00:04:55;12.90;99.90
3564;DHT22;1796;52.388;13.096;2022-10-04T00:07:26;12.80;99.90
3564;DHT22;1796;52.388;13.096;2022-10-04T00:09:55;12.80;99.90
3564;DHT22;1796;52.388;13.096;2022-10-04T00:12:26;12.80;99.90
3564;DHT22;1796;52.388;13.096;2022-10-04T00:14:56;12.70;99.90
3564;DHT22;1796;52.388;13.096;2022-10-04T00:17:27;12.70;99.90
3564;DHT22;1796;52.388;13.096;2022-10-04T00:19:57;12.70;99.90
3564;DHT22;1796;52.388;13.096;2022-10-04T00:22:26;12.70;99.90
3564;DHT22;1796;52.388;13.096;2022-10-04T00:31:10;12.70;99.90
3564;DHT22;1796;52.388;13.096;2022-10-04T00:33:38;12.60;99.90
3564;DHT22;1796;52.388;13.096;2022-10-04T00:39:41;12.70;99.90
3564;DHT22;1796;52.388;13.096;2022-10-04T00:42:44;12.70;99.90
3564;DHT22;1796;52.388;13.096;2022-10-04T00:45:17;12.70;99.90
3564;DHT22;1796;52.388;13.096;2022-10-04T00:48:08;12.60;99.90
3564;DHT22;1796;52.388;13.096;2022-10-04T00:50:38;12.60;99.90
3564;DHT22;1796;52.388;13.096;2022-10-04T00:53:19;12.60;99.90
3564;DHT22;1796;52.388;13.096;2022-10-04T00:55:50;12.70;99.90
3564;DHT22;1796;52.388;13.096;2022-10-04T00:58:22;12.70;99.90
3564;DHT22;1796;52.388;13.096;2022-10-04T01:00:52;12.60;99.90
3564;DHT22;1796;52.388;13.096;2022-10-04T01:03:27;12.70;99.90
3564;DHT22;1796;52.388;13.096;2022-10-04T01:05:58;12.70;99.90
3564;DHT22;1796;52.388;13.096;2022-10-04T01:08:29;12.60;99.90
3564;DHT22;1796;52.388;13.096;2022-10-04T01:11:01;12.60;99.90
3564;DHT22;1796;52.388;13.096;2022-10-04T01:13:30;12.60;99.90
3564;DHT22;1796;52.388;13.096;2022-10-04T01:16:03;12.60;99.90
3564;DHT22;1796;52.388;13.096;2022-10-04T01:18:37;12.60;99.90
3564;DHT22;1796;52.388;13.096;2022-10-04T01:21:07;12.60;99.90
3564;DHT22;1796;52.388;13.096;2022-10-04T01:23:41;12.60;99.90
3564;DHT22;1796;52.388;13.096;2022-10-04T01:26:34;12.60;99.90
3564;DHT22;1796;52.388;13.096;2022-10-04T01:29:05;12.50;99.90
3564;DHT22;1796;52.388;13.096;2022-10-04T01:31:34;12.50;99.90
3564;DHT22;1796;52.388;13.096;2022-10-04T01:34:02;12.50;99.90
3564;DHT22;1796;52.388;13.096;2022-10-04T01:36:31;12.50;99.90
3564;DHT22;1796;52.388;13.096;2022-10-04T01:39:00;12.50;99.90
3564;DHT22;1796;52.388;13.096;2022-10-04T01:41:30;12.40;99.90
3564;DHT22;1796;52.388;13.096;2022-10-04T01:44:03;12.40;99.90
3564;DHT22;1796;52.388;13.096;2022-10-04T01:46:33;12.40;99.90
3564;DHT22;1796;52.388;13.096;2022-10-04T01:49:03;12.30;99.90
3564;DHT22;1796;52.388;13.096;2022-10-04T01:51:34;12.30;99.90
3564;DHT22;1796;52.388;13.096;2022-10-04T01:54:06;12.30;99.90
3564;DHT22;1796;52.388;13.096;2022-10-04T01:56:40;12.30;99.90
3564;DHT22;1796;52.388;13.096;2022-10-04T01:59:14;12.30;99.90
3564;DHT22;1796;52.388;13.096;2022-10-04T02:01:47;12.30;99.90
3564;DHT22;1796;52.388;13.096;2022-10-04T02:04:17;12.30;99.90
3564;DHT22;1796;52.388;13.096;2022-10-04T02:06:47;12.30;99.90
3564;DHT22;1796;52.388;13.096;2022-10-04T02:09:23;12.20;99.90
3564;DHT22;1796;52.388;13.096;2022-10-04T02:11:52;12.20;99.90
3564;DHT22;1796;52.388;13.096;2022-10-04T02:14:21;12.30;99.90
3564;DHT22;1796;52.388;13.096;2022-10-04T02:16:50;12.20;99.90
3564;DHT22;1796;52.388;13.096;2022-10-04T02:19:19;12.20;99.90
3564;DHT22;1796;52.388;13.096;2022-10-04T02:21:48;12.30;99.90
3564;DHT22;1796;52.388;13.096;2022-10-04T02:24:15;12.30;99.90
3564;DHT22;1796;52.388;13.096;2022-10-04T02:26:49;12.30;99.90
3564;DHT22;1796;52.388;13.096;2022-10-04T02:29:17;12.30;99.90
3564;DHT22;1796;52.388;13.096;2022-10-04T02:31:45;12.30;99.90
3564;DHT22;1796;52.388;13.096;2022-10-04T02:34:31;12.30;99.90
3564;DHT22;1796;52.388;13.096;2022-10-04T02:37:00;12.20;99.90
3564;DHT22;1796;52.388;13.096;2022-10-04T02:39:32;12.30;99.90
3564;DHT22;1796;52.388;13.096;2022-10-04T02:42:03;12.20;99.90
3564;DHT22;1796;52.388;13.096;2022-10-04T02:44:39;12.20;99.90
3564;DHT22;1796;52.388;13.096;2022-10-04T02:47:11;12.20;99.90
3564;DHT22;1796;52.388;13.096;2022-10-04T02:49:43;12.20;99.90
3564;DHT22;1796;52.388;13.096;2022-10-04T02:52:14;12.20;99.90
3564;DHT22;1796;52.388;13.096;2022-10-04T02:54:45;12.20;99.90
3564;DHT22;1796;52.388;13.096;2022-10-04T02:57:18;12.20;99.90
3564;DHT22;1796;52.388;13.096;2022-10-04T02:59:46;12.20;99.90
3564;DHT22;1796;52.388;13.096;2022-10-04T03:02:22;12.20;99.90
3564;DHT22;1796;52.388;13.096;2022-10-04T03:04:50;12.20;99.90
3564;DHT22;1796;52.388;13.096;2022-10-04T03:07:19;12.10;99.90
3564;DHT22;1796;52.388;13.096;2022-10-04T03:09:47;12.10;99.90
3564;DHT22;1796;52.388;13.096;2022-10-04T03:12:16;12.00;99.90
3564;DHT22;1796;52.388;13.096;2022-10-04T03:14:43;12.00;99.90
3564;DHT22;1796;52.388;13.096;2022-10-04T03:17:10;12.00;99.90
3564;DHT22;1796;52.388;13.096;2022-10-04T03:19:40;12.00;99.90
3564;DHT22;1796;52.388;13.096;2022-10-04T03:22:09;12.00;99.90
3564;DHT22;1796;52.388;13.096;2022-10-04T03:24:38;11.90;99.90
3564;DHT22;1796;52.388;13.096;2022-10-04T03:27:13;11.90;99.90
3564;DHT22;1796;52.388;13.096;2022-10-04T03:29:43;11.80;99.90
3564;DHT22;1796;52.388;13.096;2022-10-04T03:32:13;11.90;99.90
3564;DHT22;1796;52.388;13.096;2022-10-04T03:34:41;11.80;99.90
3564;DHT22;1796;52.388;13.096;2022-10-04T03:37:14;11.80;99.90
3564;DHT22;1796;52.388;13.096;2022-10-04T03:39:45;11.80;99.90
3564;DHT22;1796;52.388;13.096;2022-10-04T03:42:14;11.90;99.90
3564;DHT22;1796;52.388;13.096;2022-10-04T03:44:43;11.90;99.90
3564;DHT22;1796;52.388;13.096;2022-10-04T03:47:13;11.80;99.90
3564;DHT22;1796;52.388;13.096;2022-10-04T03:49:41;11.70;99.90
3564;DHT22;1796;52.388;13.096;2022-10-04T03:52:16;11.70;99.90
3564;DHT22;1796;52.388;13.096;2022-10-04T03:54:44;11.80;99.90
3564;DHT22;1796;52.388;13.096;2022-10-04T03:57:12;11.80;99.90
3564;DHT22;1796;52.388;13.096;2022-10-04T03:59:39;11.80;99.90
3564;DHT22;1796;52.388;13.096;2022-10-04T04:02:15;11.90;99.90
3564;DHT22;1796;52.388;13.096;2022-10-04T04:04:48;11.90;99.90
3564;DHT22;1796;52.388;13.096;2022-10-04T04:07:22;12.00;99.90
3564;DHT22;1796;52.388;13.096;2022-10-04T04:09:55;12.00;99.90
3564;DHT22;1796;52.388;13.096;2022-10-04T04:12:30;12.00;99.90
3564;DHT22;1796;52.388;13.096;2022-10-04T04:15:00;12.00;99.90
3564;DHT22;1796;52.388;13.096;2022-10-04T04:17:36;12.10;99.90
3564;DHT22;1796;52.388;13.096;2022-10-04T04:20:16;12.10;99.90
3564;DHT22;1796;52.388;13.096;2022-10-04T04:22:54;12.00;99.90
3564;DHT22;1796;52.388;13.096;2022-10-04T04:25:23;12.00;99.90
3564;DHT22;1796;52.388;13.096;2022-10-04T04:27:53;12.00;99.90
3564;DHT22;1796;52.388;13.096;2022-10-04T04:30:21;12.00;99.90
3564;DHT22;1796;52.388;13.096;2022-10-04T04:32:52;11.90;99.90
3564;DHT22;1796;52.388;13.096;2022-10-04T04:35:24;11.90;99.90
3564;DHT22;1796;52.388;13.096;2022-10-04T04:38:04;11.70;99.90
3564;DHT22;1796;52.388;13.096;2022-10-04T04:40:32;11.60;99.90
3564;DHT22;1796;52.388;13.096;2022-10-04T04:43:00;11.60;99.90
3564;DHT22;1796;52.388;13.096;2022-10-04T04:45:30;11.60;99.90
3564;DHT22;1796;52.388;13.096;2022-10-04T04:48:00;11.60;99.90
3564;DHT22;1796;52.388;13.096;2022-10-04T04:50:30;11.60;99.90
3564;DHT22;1796;52.388;13.096;2022-10-04T04:53:03;11.60;99.90
3564;DHT22;1796;52.388;13.096;2022-10-04T04:55:37;11.60;99.90
3564;DHT22;1796;52.388;13.096;2022-10-04T04:58:05;11.70;99.90
3564;DHT22;1796;52.388;13.096;2022-10-04T05:00:35;11.60;99.90
3564;DHT22;1796;52.388;13.096;2022-10-04T05:03:06;11.70;99.90
3564;DHT22;1796;52.388;13.096;2022-10-04T05:05:44;11.80;99.90
3564;DHT22;1796;52.388;13.096;2022-10-04T05:08:17;11.80;99.90
3564;DHT22;1796;52.388;13.096;2022-10-04T05:10:48;11.80;99.90
3564;DHT22;1796;52.388;13.096;2022-10-04T05:13:16;11.90;99.90
3564;DHT22;1796;52.388;13.096;2022-10-04T05:15:44;11.80;99.90
3564;DHT22;1796;52.388;13.096;2022-10-04T05:18:23;11.80;99.90
3564;DHT22;1796;52.388;13.096;2022-10-04T05:20:53;11.80;99.90
3564;DHT22;1796;52.388;13.096;2022-10-04T05:23:21;11.80;99.90
3564;DHT22;1796;52.388;13.096;2022-10-04T05:25:48;11.90;99.90
3564;DHT22;1796;52.388;13.096;2022-10-04T05:28:16;12.00;99.90
3564;DHT22;1796;52.388;13.096;2022-10-04T05:30:55;12.00;99.90
3564;DHT22;1796;52.388;13.096;2022-10-04T05:33:38;12.00;99.90
3564;DHT22;1796;52.388;13.096;2022-10-04T05:36:37;12.00;99.90
3564;DHT22;1796;52.388;13.096;2022-10-04T05:39:11;12.00;99.90
3564;DHT22;1796;52.388;13.096;2022-10-04T05:41:45;12.00;99.90
3564;DHT22;1796;52.388;13.096;2022-10-04T05:44:22;12.10;99.90
3564;DHT22;1796;52.388;13.096;2022-10-04T05:46:51;12.10;99.90
3564;DHT22;1796;52.388;13.096;2022-10-04T05:49:20;12.10;99.90
3564;DHT22;1796;52.388;13.096;2022-10-04T05:51:49;12.10;99.90
3564;DHT22;1796;52.388;13.096;2022-10-04T05:54:18;12.10;99.90
3564;DHT22;1796;52.388;13.096;2022-10-04T05:57:10;12.20;99.90
3564;DHT22;1796;52.388;13.096;2022-10-04T06:05:27;12.30;99.90
3564;DHT22;1796;52.388;13.096;2022-10-04T06:07:59;12.30;99.90
3564;DHT22;1796;52.388;13.096;2022-10-04T06:10:45;12.40;99.90
3564;DHT22;1796;52.388;13.096;2022-10-04T06:13:26;12.40;99.90
3564;DHT22;1796;52.388;13.096;2022-10-04T06:16:06;12.50;99.90
3564;DHT22;1796;52.388;13.096;2022-10-04T06:19:03;12.60;99.90
3564;DHT22;1796;52.388;13.096;2022-10-04T06:21:42;12.60;99.90
3564;DHT22;1796;52.388;13.096;2022-10-04T06:24:14;12.60;99.90
3564;DHT22;1796;52.388;13.096;2022-10-04T06:26:45;12.80;99.90
3564;DHT22;1796;52.388;13.096;2022-10-04T06:29:16;12.80;99.90
3564;DHT22;1796;52.388;13.096;2022-10-04T06:32:11;12.80;99.90
3564;DHT22;1796;52.388;13.096;2022-10-04T06:37:49;12.90;99.90
3564;DHT22;1796;52.388;13.096;2022-10-04T06:40:57;13.00;99.90
3564;DHT22;1796;52.388;13.096;2022-10-04T06:43:41;13.00;99.90
3564;DHT22;1796;52.388;13.096;2022-10-04T06:46:15;13.00;99.90
3564;DHT22;1796;52.388;13.096;2022-10-04T06:48:59;13.00;99.90
3564;DHT22;1796;52.388;13.096;2022-10-04T06:51:44;13.10;99.90
3564;DHT22;1796;52.388;13.096;2022-10-04T06:54:29;13.00;99.90
3564;DHT22;1796;52.388;13.096;2022-10-04T06:57:32;13.00;99.90
3564;DHT22;1796;52.388;13.096;2022-10-04T07:00:08;13.10;99.90
3564;DHT22;1796;52.388;13.096;2022-10-04T07:02:40;13.30;99.90
3564;DHT22;1796;52.388;13.096;2022-10-04T07:05:17;13.40;99.90
3564;DHT22;1796;52.388;13.096;2022-10-04T07:07:54;13.50;99.90
3564;DHT22;1796;52.388;13.096;2022-10-04T07:10:37;13.50;99.90
3564;DHT22;1796;52.388;13.096;2022-10-04T07:13:14;13.50;99.90
3564;DHT22;1796;52.388;13.096;2022-10-04T07:15:47;13.60;99.90
3564;DHT22;1796;52.388;13.096;2022-10-04T07:18:19;13.60;99.90
3564;DHT22;1796;52.388;13.096;2022-10-04T07:20:56;13.70;99.90
3564;DHT22;1796;52.388;13.096;2022-10-04T07:23:28;13.80;99.90
3564;DHT22;1796;52.388;13.096;2022-10-04T07:26:01;13.80;99.90
3564;DHT22;1796;52.388;13.096;2022-10-04T07:28:33;13.80;99.90
3564;DHT22;1796;52.388;13.096;2022-10-04T07:31:24;13.80;99.90
3564;DHT22;1796;52.388;13.096;2022-10-04T07:33:56;13.90;99.90
3564;DHT22;1796;52.388;13.096;2022-10-04T07:36:28;13.90;99.90
3564;DHT22;1796;52.388;13.096;2022-10-04T07:38:59;14.00;99.90
3564;DHT22;1796;52.388;13.096;2022-10-04T07:41:34;14.00;99.90
3564;DHT22;1796;52.388;13.096;2022-10-04T07:44:11;14.20;99.90
3564;DHT22;1796;52.388;13.096;2022-10-04T07:46:45;14.30;99.90
3564;DHT22;1796;52.388;13.096;2022-10-04T07:49:15;14.40;99.90
3564;DHT22;1796;52.388;13.096;2022-10-04T07:54:42;14.50;99.90
3564;DHT22;1796;52.388;13.096;2022-10-04T07:57:20;14.40;99.90
3564;DHT22;1796;52.388;13.096;2022-10-04T07:59:55;14.20;99.90
3564;DHT22;1796;52.388;13.096;2022-10-04T08:02:34;14.20;99.90
3564;DHT22;1796;52.388;13.096;2022-10-04T08:05:16;14.30;99.90
3564;DHT22;1796;52.388;13.096;2022-10-04T08:10:52;15.00;99.90
3564;DHT22;1796;52.388;13.096;2022-10-04T08:13:30;15.30;99.90
3564;DHT22;1796;52.388;13.096;2022-10-04T08:16:02;15.60;99.90
3564;DHT22;1796;52.388;13.096;2022-10-04T08:18:40;15.70;99.90
3564;DHT22;1796;52.388;13.096;2022-10-04T08:21:14;15.70;99.90
3564;DHT22;1796;52.388;13.096;2022-10-04T08:24:10;15.50;99.90
3564;DHT22;1796;52.388;13.096;2022-10-04T08:26:52;15.60;99.90
3564;DHT22;1796;52.388;13.096;2022-10-04T08:29:52;15.80;99.90
3564;DHT22;1796;52.388;13.096;2022-10-04T08:38:24;16.10;99.90
3564;DHT22;1796;52.388;13.096;2022-10-04T08:47:24;16.10;99.90
3564;DHT22;1796;52.388;13.096;2022-10-04T08:50:25;16.20;99.90
3564;DHT22;1796;52.388;13.096;2022-10-04T08:53:22;16.20;99.90
3564;DHT22;1796;52.388;13.096;2022-10-04T08:56:08;16.10;99.90
3564;DHT22;1796;52.388;13.096;2022-10-04T08:58:51;16.20;99.90
3564;DHT22;1796;52.388;13.096;2022-10-04T09:01:44;16.40;99.90
3564;DHT22;1796;52.388;13.096;2022-10-04T09:04:50;16.40;99.90
3564;DHT22;1796;52.388;13.096;2022-10-04T09:07:39;16.60;99.90
3564;DHT22;1796;52.388;13.096;2022-10-04T09:10:38;16.60;99.90
3564;DHT22;1796;52.388;13.096;2022-10-04T09:13:22;16.80;99.90
3564;DHT22;1796;52.388;13.096;2022-10-04T09:16:05;16.80;99.90
3564;DHT22;1796;52.388;13.096;2022-10-04T09:18:49;16.90;99.90
3564;DHT22;1796;52.388;13.096;2022-10-04T09:21:41;16.80;99.90
3564;DHT22;1796;52.388;13.096;2022-10-04T09:24:37;16.80;99.90
3564;DHT22;1796;52.388;13.096;2022-10-04T09:27:17;16.70;99.90
3564;DHT22;1796;52.388;13.096;2022-10-04T09:30:02;16.40;99.90
3564;DHT22;1796;52.388;13.096;2022-10-04T09:33:00;16.30;99.90
3564;DHT22;1796;52.388;13.096;2022-10-04T09:35:55;16.30;99.90
3564;DHT22;1796;52.388;13.096;2022-10-04T09:38:50;16.60;99.90
3564;DHT22;1796;52.388;13.096;2022-10-04T09:41:51;16.70;99.90
3564;DHT22;1796;52.388;13.096;2022-10-04T09:44:48;16.70;99.90
3564;DHT22;1796;52.388;13.096;2022-10-04T09:47:26;17.00;99.90
3564;DHT22;1796;52.388;13.096;2022-10-04T09:53:31;17.20;99.90
3564;DHT22;1796;52.388;13.096;2022-10-04T09:56:27;17.30;99.90
3564;DHT22;1796;52.388;13.096;2022-10-04T10:02:02;17.40;99.90
3564;DHT22;1796;52.388;13.096;2022-10-04T10:04:42;17.50;99.90
3564;DHT22;1796;52.388;13.096;2022-10-04T10:07:30;17.50;99.90
3564;DHT22;1796;52.388;13.096;2022-10-04T10:10:05;17.40;99.90
3564;DHT22;1796;52.388;13.096;2022-10-04T10:13:18;17.40;99.90
3564;DHT22;1796;52.388;13.096;2022-10-04T10:16:20;17.60;99.90
3564;DHT22;1796;52.388;13.096;2022-10-04T10:19:11;17.80;99.90
3564;DHT22;1796;52.388;13.096;2022-10-04T10:22:13;17.90;99.90
3564;DHT22;1796;52.388;13.096;2022-10-04T10:25:11;18.10;99.90
3564;DHT22;1796;52.388;13.096;2022-10-04T10:27:52;18.20;99.90
3564;DHT22;1796;52.388;13.096;2022-10-04T10:30:30;18.10;99.90
3564;DHT22;1796;52.388;13.096;2022-10-04T10:33:34;18.10;99.90
3564;DHT22;1796;52.388;13.096;2022-10-04T10:36:28;18.20;99.90
3564;DHT22;1796;52.388;13.096;2022-10-04T10:39:17;18.30;99.90
3564;DHT22;1796;52.388;13.096;2022-10-04T10:42:00;18.70;99.90
3564;DHT22;1796;52.388;13.096;2022-10-04T10:44:56;19.00;99.90
3564;DHT22;1796;52.388;13.096;2022-10-04T10:47:37;19.00;99.90
3564;DHT22;1796;52.388;13.096;2022-10-04T10:50:23;18.50;99.90
3564;DHT22;1796;52.388;13.096;2022-10-04T10:56:29;18.90;99.90
3564;DHT22;1796;52.388;13.096;2022-10-04T11:02:20;18.90;99.90
3564;DHT22;1796;52.388;13.096;2022-10-04T11:05:02;19.00;99.90
3564;DHT22;1796;52.388;13.096;2022-10-04T11:07:46;18.90;99.90
3564;DHT22;1796;52.388;13.096;2022-10-04T11:17:03;19.50;99.90
3564;DHT22;1796;52.388;13.096;2022-10-04T11:23:12;18.90;99.90
3564;DHT22;1796;52.388;13.096;2022-10-04T11:25:59;19.10;99.90
3564;DHT22;1796;52.388;13.096;2022-10-04T11:28:36;19.00;99.90
3564;DHT22;1796;52.388;13.096;2022-10-04T11:31:31;19.00;99.90
3564;DHT22;1796;52.388;13.096;2022-10-04T11:34:34;19.00;99.90
3564;DHT22;1796;52.388;13.096;2022-10-04T11:37:13;18.90;99.90
3564;DHT22;1796;52.388;13.096;2022-10-04T11:40:06;19.00;99.90
3564;DHT22;1796;52.388;13.096;2022-10-04T11:42:49;19.20;99.90
3564;DHT22;1796;52.388;13.096;2022-10-04T11:45:44;19.30;99.90
3564;DHT22;1796;52.388;13.096;2022-10-04T11:48:20;19.30;99.90
3564;DHT22;1796;52.388;13.096;2022-10-04T11:51:16;19.10;99.90
3564;DHT22;1796;52.388;13.096;2022-10-04T11:57:20;18.70;99.90
3564;DHT22;1796;52.388;13.096;2022-10-04T11:59:59;18.70;99.90
3564;DHT22;1796;52.388;13.096;2022-10-04T12:05:39;18.70;99.90
3564;DHT22;1796;52.388;13.096;2022-10-04T12:08:17;18.70;99.90
3564;DHT22;1796;52.388;13.096;2022-10-04T12:10:50;18.60;99.90
3564;DHT22;1796;52.388;13.096;2022-10-04T12:13:42;18.50;99.90
3564;DHT22;1796;52.388;13.096;2022-10-04T12:16:31;18.60;99.90
3564;DHT22;1796;52.388;13.096;2022-10-04T12:31:19;18.20;99.90
3564;DHT22;1796;52.388;13.096;2022-10-04T12:33:53;18.10;99.90
3564;DHT22;1796;52.388;13.096;2022-10-04T12:39:33;18.20;99.90
3564;DHT22;1796;52.388;13.096;2022-10-04T12:42:14;18.10;99.90
3564;DHT22;1796;52.388;13.096;2022-10-04T12:44:56;18.50;99.90
3564;DHT22;1796;52.388;13.096;2022-10-04T12:47:46;18.70;99.90
3564;DHT22;1796;52.388;13.096;2022-10-04T12:50:24;18.90;99.90
3564;DHT22;1796;52.388;13.096;2022-10-04T12:53:05;19.10;99.90
3564;DHT22;1796;52.388;13.096;2022-10-04T12:55:58;19.00;99.90
3564;DHT22;1796;52.388;13.096;2022-10-04T12:58:39;19.30;99.90
3564;DHT22;1796;52.388;13.096;2022-10-04T13:01:14;19.40;99.90
3564;DHT22;1796;52.388;13.096;2022-10-04T13:04:04;19.80;99.90
3564;DHT22;1796;52.388;13.096;2022-10-04T13:06:39;19.80;99.90
3564;DHT22;1796;52.388;13.096;2022-10-04T13:09:13;19.60;99.90
3564;DHT22;1796;52.388;13.096;2022-10-04T13:11:56;19.60;99.90
3564;DHT22;1796;52.388;13.096;2022-10-04T13:14:48;19.50;99.90
3564;DHT22;1796;52.388;13.096;2022-10-04T13:17:28;19.50;99.90
3564;DHT22;1796;52.388;13.096;2022-10-04T13:20:16;19.60;99.90
3564;DHT22;1796;52.388;13.096;2022-10-04T13:22:49;19.60;99.90
3564;DHT22;1796;52.388;13.096;2022-10-04T13:25:30;19.40;99.90
3564;DHT22;1796;52.388;13.096;2022-10-04T13:28:05;19.40;99.90
3564;DHT22;1796;52.388;13.096;2022-10-04T13:30:42;19.20;99.90
3564;DHT22;1796;52.388;13.096;2022-10-04T13:33:22;19.00;99.90
3564;DHT22;1796;52.388;13.096;2022-10-04T13:35:58;19.00;99.90
3564;DHT22;1796;52.388;13.096;2022-10-04T13:38:50;18.90;99.90
3564;DHT22;1796;52.388;13.096;2022-10-04T13:41:35;19.00;99.90
3564;DHT22;1796;52.388;13.096;2022-10-04T13:44:31;18.90;99.90
3564;DHT22;1796;52.388;13.096;2022-10-04T13:50:28;18.80;99.90
3564;DHT22;1796;52.388;13.096;2022-10-04T13:53:08;19.00;99.90
3564;DHT22;1796;52.388;13.096;2022-10-04T13:55:59;18.90;99.90
3564;DHT22;1796;52.388;13.096;2022-10-04T13:58:54;18.80;99.90
3564;DHT22;1796;52.388;13.096;2022-10-04T14:01:58;18.80;99.90
3564;DHT22;1796;52.388;13.096;2022-10-04T14:04:45;18.70;99.90
3564;DHT22;1796;52.388;13.096;2022-10-04T14:07:36;18.50;99.90
3564;DHT22;1796;52.388;13.096;2022-10-04T14:10:45;18.50;99.90
3564;DHT22;1796;52.388;13.096;2022-10-04T14:13:45;18.40;99.90
3564;DHT22;1796;52.388;13.096;2022-10-04T14:16:45;18.30;99.90
3564;DHT22;1796;52.388;13.096;2022-10-04T14:19:36;18.30;99.90
3564;DHT22;1796;52.388;13.096;2022-10-04T14:22:33;18.40;99.90
3564;DHT22;1796;52.388;13.096;2022-10-04T14:25:23;18.40;99.90
3564;DHT22;1796;52.388;13.096;2022-10-04T14:28:20;18.60;99.90
3564;DHT22;1796;52.388;13.096;2022-10-04T14:31:01;18.60;99.90
3564;DHT22;1796;52.388;13.096;2022-10-04T14:34:02;18.80;
3564;DHT22;1796;52.388;13.096;2022-10-04T14:37:10;19.00;99.90
3564;DHT22;1796;52.388;13.096;2022-10-04T14:40:02;18.90;99.90
3564;DHT22;1796;52.388;13.096;2022-10-04T14:45:54;18.80;99.90
3564;DHT22;1796;52.388;13.096;2022-10-04T14:48:43;18.50;99.90
3564;DHT22;1796;52.388;13.096;2022-10-04T14:53:51;18.40;99.90
3564;DHT22;1796;52.388;13.096;2022-10-04T14:59:36;18.20;99.90
3564;DHT22;1796;52.388;13.096;2022-10-04T15:02:34;18.10;99.90
3564;DHT22;1796;52.388;13.096;2022-10-04T15:05:29;18.00;99.90
3564;DHT22;1796;52.388;13.096;2022-10-04T15:08:24;17.90;99.90
3564;DHT22;1796;52.388;13.096;2022-10-04T15:10:57;17.90;99.90
3564;DHT22;1796;52.388;13.096;2022-10-04T15:13:28;17.80;99.90
3564;DHT22;1796;52.388;13.096;2022-10-04T15:16:04;17.80;99.90
3564;DHT22;1796;52.388;13.096;2022-10-04T15:18:46;17.60;99.90
3564;DHT22;1796;52.388;13.096;2022-10-04T15:21:42;17.60;99.90
3564;DHT22;1796;52.388;13.096;2022-10-04T15:24:27;17.50;99.90
3564;DHT22;1796;52.388;13.096;2022-10-04T15:30:09;17.40;99.90
3564;DHT22;1796;52.388;13.096;2022-10-04T15:32:41;17.30;99.90
3564;DHT22;1796;52.388;13.096;2022-10-04T15:35:22;17.20;99.90
3564;DHT22;1796;52.388;13.096;2022-10-04T15:37:56;17.10;99.90
3564;DHT22;1796;52.388;13.096;2022-10-04T15:40:38;17.00;99.90
3564;DHT22;1796;52.388;13.096;2022-10-04T15:43:19;17.00;99.90
3564;DHT22;1796;52.388;13.096;2022-10-04T15:45:57;16.90;99.90
3564;DHT22;1796;52.388;13.096;2022-10-04T15:48:48;16.80;99.90
3564;DHT22;1796;52.388;13.096;2022-10-04T15:54:43;16.60;99.90
3564;DHT22;1796;52.388;13.096;2022-10-04T15:57:26;16.50;99.90
3564;DHT22;1796;52.388;13.096;2022-10-04T16:00:03;16.40;99.90
3564;DHT22;1796;52.388;13.096;2022-10-04T16:05:32;16.10;99.90
3564;DHT22;1796;52.388;13.096;2022-10-04T16:11:29;15.90;99.90
3564;DHT22;1796;52.388;13.096;2022-10-04T16:14:05;15.80;99.90
3564;DHT22;1796;52.388;13.096;2022-10-04T16:19:51;15.50;99.90
3564;DHT22;1796;52.388;13.096;2022-10-04T16:22:27;15.30;99.90
3564;DHT22;1796;52.388;13.096;2022-10-04T16:24:58;15.20;99.90
3564;DHT22;1796;52.388;13.096;2022-10-04T16:27:57;15.10;99.90
3564;DHT22;1796;52.388;13.096;2022-10-04T16:30:29;15.00;99.90
3564;DHT22;1796;52.388;13.096;2022-10-04T16:33:12;14.80;99.90
3564;DHT22;1796;52.388;13.096;2022-10-04T16:35:49;14.70;99.90
3564;DHT22;1796;52.388;13.096;2022-10-04T16:38:23;14.60;99.90
3564;DHT22;1796;52.388;13.096;2022-10-04T16:41:09;14.50;99.90
3564;DHT22;1796;52.388;13.096;2022-10-04T16:43:45;14.30;99.90
3564;DHT22;1796;52.388;13.096;2022-10-04T16:46:22;14.20;99.90
3564;DHT22;1796;52.388;13.096;2022-10-04T16:48:52;14.10;99.90
3564;DHT22;1796;52.388;13.096;2022-10-04T16:54:41;13.90;99.90
3564;DHT22;1796;52.388;13.096;2022-10-04T16:57:17;13.70;99.90
3564;DHT22;1796;52.388;13.096;2022-10-04T16:59:50;13.60;99.90
3564;DHT22;1796;52.388;13.096;2022-10-04T17:05:47;13.40;99.90
3564;DHT22;1796;52.388;13.096;2022-10-04T17:08:24;13.30;99.90
3564;DHT22;1796;52.388;13.096;2022-10-04T17:14:00;13.10;99.90
3564;DHT22;1796;52.388;13.096;2022-10-04T17:16:35;12.90;99.90
3564;DHT22;1796;52.388;13.096;2022-10-04T17:19:16;12.90;99.90
3564;DHT22;1796;52.388;13.096;2022-10-04T17:21:57;12.80;99.90
3564;DHT22;1796;52.388;13.096;2022-10-04T17:24:41;12.80;99.90
3564;DHT22;1796;52.388;13.096;2022-10-04T17:30:12;12.50;99.90
3564;DHT22;1796;52.388;13.096;2022-10-04T17:32:54;12.40;99.90
3564;DHT22;1796;52.388;13.096;2022-10-04T17:35:45;12.30;99.90
3564;DHT22;1796;52.388;13.096;2022-10-04T17:38:25;12.20;99.90
3564;DHT22;1796;52.388;13.096;2022-10-04T17:41:00;12.10;99.90
3564;DHT22;1796;52.388;13.096;2022-10-04T17:43:36;12.00;99.90
3564;DHT22;1796;52.388;13.096;2022-10-04T17:46:16;11.90;99.90
3564;DHT22;1796;52.388;13.096;2022-10-04T17:48:54;11.90;99.90
3564;DHT22;1796;52.388;13.096;2022-10-04T17:51:42;11.80;99.90
3564;DHT22;1796;52.388;13.096;2022-10-04T17:54:33;11.70;99.90
3564;DHT22;1796;52.388;13.096;2022-10-04T17:57:26;11.70;99.90
3564;DHT22;1796;52.388;13.096;2022-10-04T18:00:05;11.60;99.90
3564;DHT22;1796;52.388;13.096;2022-10-04T18:02:57;11.60;99.90
3564;DHT22;1796;52.388;13.096;2022-10-04T18:05:28;11.50;99.90
3564;DHT22;1796;52.388;13.096;2022-10-04T18:07:59;11.40;99.90
3564;DHT22;1796;52.388;13.096;2022-10-04T18:10:30;11.40;99.90
3564;DHT22;1796;52.388;13.096;2022-10-04T18:13:00;11.30;99.90
3564;DHT22;1796;52.388;13.096;2022-10-04T18:15:33;11.30;99.90
3564;DHT22;1796;52.388;13.096;2022-10-04T18:18:14;11.30;99.90
3564;DHT22;1796;52.388;13.096;2022-10-04T18:21:02;11.20;99.90
3564;DHT22;1796;52.388;13.096;2022-10-04T18:23:32;11.10;99.90
3564;DHT22;1796;52.388;13.096;2022-10-04T18:26:04;11.10;99.90
3564;DHT22;1796;52.388;13.096;2022-10-04T18:28:33;11.10;99.90
3564;DHT22;1796;52.388;13.096;2022-10-04T18:31:31;11.10;99.90
3564;DHT22;1796;52.388;13.096;2022-10-04T18:34:16;11.10;99.90
3564;DHT22;1796;52.388;13.096;2022-10-04T18:36:51;11.10;99.90
3564;DHT22;1796;52.388;13.096;2022-10-04T18:39:20;11.10;99.90
3564;DHT22;1796;52.388;13.096;2022-10-04T18:42:00;11.00;99.90
3564;DHT22;1796;52.388;13.096;2022-10-04T18:44:43;10.90;99.90
3564;DHT22;1796;52.388;13.096;2022-10-04T18:47:28;10.80;99.90
3564;DHT22;1796;52.388;13.096;2022-10-04T18:50:00;10.70;99.90
3564;DHT22;1796;52.388;13.096;2022-10-04T18:52:45;10.70;99.90
3564;DHT22;1796;52.388;13.096;2022-10-04T18:55:23;10.60;99.90
3564;DHT22;1796;52.388;13.096;2022-10-04T18:58:00;10.60;99.90
3564;DHT22;1796;52.388;13.096;2022-10-04T19:00:51;10.50;99.90
3564;DHT22;1796;52.388;13.096;2022-10-04T19:03:41;10.50;99.90
3564;DHT22;1796;52.388;13.096;2022-10-04T19:06:15;10.40;99.90